Main page
METAR-TAF:

METAR-TAF

Airports :

Providenciales International Airport

Providenciales, Turks and Caicos Islands

latitude: 21-46-25N, longitude: 072-15-57W, elevation: 5 m

Current weather observation

The report was made 49 minutes ago, at 22:00 UTC
Wind 11 kt from the East/Northeast
Temperature 29°C
Humidity 66%
Pressure 1010 hPa
Visibility 10 km or more
Scattered clouds at a height of 1200 ft

METAR: MBPV 182200Z 06011KT 9999 SCT012 29/22 Q1010

Time: 18:49 (22:49 UTC)

Forecast

The report was made 4 hours and 46 minutes ago, at 18:03 UTC
Forecast valid from 18 at 18 UTC to 19 at 18 UTC
Wind 12 kt from the East
Visibility 10 km or more
Scattered clouds at a height of 1800 ft
showers in vicinity,

TAF: MBPV 181803Z 1818/1918 08012KT 9999 VCSH SCT018

Weather observations and forecasts of more than 4000 airports (METAR and TAF reports).

The available stations are represented by yellow and red dots on the map.

Hover mouse over dot to see the name of the station.

Then click to see weather observations and forecasts.

To change the map : click on the green buttons with a black cross to zoom in, on the green button with a dash to zoom out, or on the green arrows for adjacent maps.


METAR-TAF: